Disclaimer

Please do not use the information listed here in-flight or in-navigation, as they are not provided to us by the airports but are provided by volunteers, so they might be outdated.

Search


Regions


Airport information page

Radio informations:
PUERTO MALDONADO - 118.8 MHz
PUERTO MALDONADO - 126.9 MHz
PUERTO MALDONADO - 118.8 MHz

Airport informations:
Latitude: 12° 36' 49.00" S
Longitude: 069° 13' 43.00" W
Elevation: 659 feet - 201 meters
Operating hours: N/A
Operating agency: Military-civil joint use airport
Timezone: UTC-5
Fuel: Jet A1, without icing nhibitor.

Runway information:
01/19 - 11482 x 148 feet< - >3500 x 45 meters

Recent METARs:
SPTU 181800Z 32007KT 290V020 9999 BKN012 31/25 Q1008 RMK BIRD HAZARD RWY 01/19 PP000
SPTU 181800Z 32007KT 290V020 9999 BKN012 31/25 Q1008 RMK BIRD HAZARD RWY 01/19 PP000
SPTU 181900Z 36010KT 330V040 9999 BKN012 32/25 Q1006 RMK TCU SE BIRD HAZARD RWY 01/19 PP000

Airport on the map: